createdAt,value
2023-05-10T00:01:09.484Z,0.20
2023-05-10T00:03:36.022Z,0.40
2023-05-10T00:06:02.555Z,0.20
2023-05-10T00:08:29.000Z,0.20
2023-05-10T00:10:55.428Z,0.20
2023-05-10T00:13:22.727Z,0.17
2023-05-10T00:15:49.207Z,0.40
2023-05-10T00:18:15.919Z,0.10
2023-05-10T00:20:42.394Z,0.20
2023-05-10T00:23:08.804Z,0.30
2023-05-10T00:25:35.231Z,0.20
2023-05-10T00:28:02.737Z,0.20
2023-05-10T00:30:29.201Z,0.30
2023-05-10T00:32:55.877Z,0.20
2023-05-10T00:35:22.673Z,0.20
2023-05-10T00:37:49.094Z,0.10
2023-05-10T00:40:15.698Z,0.25
2023-05-10T00:42:42.397Z,0.20
2023-05-10T00:45:09.116Z,0.20
2023-05-10T00:47:35.630Z,0.30
2023-05-10T00:50:02.417Z,0.20
2023-05-10T00:52:29.819Z,0.20
2023-05-10T00:54:56.366Z,0.20
2023-05-10T00:57:22.833Z,0.10
2023-05-10T00:59:49.315Z,0.20
2023-05-10T01:02:16.169Z,0.30
2023-05-10T01:04:42.755Z,0.30
2023-05-10T01:07:09.301Z,0.10
2023-05-10T01:09:35.797Z,0.30
2023-05-10T01:12:02.737Z,0.40
2023-05-10T01:14:29.227Z,0.20
2023-05-10T01:16:55.713Z,0.20
2023-05-10T01:19:27.088Z,0.10
2023-05-10T01:22:47.020Z,0.40
2023-05-10T01:26:15.315Z,0.40
2023-05-10T01:32:13.453Z,0.30
2023-05-10T01:34:54.049Z,0.30
2023-05-10T01:37:43.419Z,0.20
2023-05-10T01:40:20.746Z,0.20
2023-05-10T01:43:13.444Z,0.30
2023-05-10T01:46:11.388Z,0.30
2023-05-10T01:48:40.142Z,0.20
2023-05-10T01:51:07.164Z,0.20
2023-05-10T01:53:33.619Z,0.40
2023-05-10T01:56:00.110Z,0.30
2023-05-10T01:58:29.672Z,0.40
2023-05-10T02:00:56.664Z,0.25
2023-05-10T02:03:24.391Z,0.20
2023-05-10T02:05:50.926Z,0.47
2023-05-10T02:08:17.470Z,0.30
2023-05-10T02:10:43.979Z,0.30
2023-05-10T02:13:10.587Z,0.40
2023-05-10T02:15:37.041Z,0.40
2023-05-10T02:18:03.630Z,0.25
2023-05-10T02:20:30.204Z,0.20
2023-05-10T02:22:57.094Z,0.30
2023-05-10T02:25:24.308Z,0.20
2023-05-10T02:27:50.747Z,0.30
2023-05-10T02:30:17.883Z,0.30
2023-05-10T02:32:44.561Z,0.20
2023-05-10T02:35:11.032Z,0.20
2023-05-10T02:37:38.334Z,0.30
2023-05-10T02:40:05.679Z,0.32
2023-05-10T02:42:33.672Z,0.25
2023-05-10T02:54:46.836Z,0.20
2023-05-10T02:57:20.249Z,0.40
2023-05-10T03:02:31.811Z,0.20
2023-05-10T03:04:58.580Z,0.40
2023-05-10T03:22:07.706Z,0.30
2023-05-10T03:27:34.313Z,0.30
2023-05-10T03:36:44.559Z,0.20
2023-05-10T03:39:11.524Z,0.40
2023-05-10T03:41:38.006Z,0.30
2023-05-10T03:44:04.648Z,0.28
2023-05-10T03:46:31.203Z,0.40
2023-05-10T03:51:50.792Z,0.40
2023-05-10T03:54:17.274Z,0.20
2023-05-10T03:56:43.761Z,0.40
2023-05-10T03:59:10.244Z,0.30
2023-05-10T04:01:36.781Z,0.30
2023-05-10T04:04:03.356Z,0.30
2023-05-10T04:06:30.020Z,0.20
2023-05-10T04:12:18.890Z,0.30
2023-05-10T04:14:45.333Z,0.40
2023-05-10T04:17:11.934Z,0.35
2023-05-10T04:19:38.525Z,0.32
2023-05-10T04:22:04.963Z,0.20
2023-05-10T04:24:31.459Z,0.40
2023-05-10T04:27:26.942Z,0.90
2023-05-10T04:29:53.415Z,0.40
2023-05-10T04:32:21.253Z,0.50
2023-05-10T04:34:48.093Z,0.30
2023-05-10T04:37:14.596Z,0.47
2023-05-10T04:39:42.524Z,0.50
2023-05-10T04:42:09.164Z,0.40
2023-05-10T04:44:35.684Z,0.50
2023-05-10T04:56:23.911Z,0.40
2023-05-10T04:58:50.545Z,0.47
2023-05-10T05:01:17.066Z,0.30
2023-05-10T05:03:43.714Z,0.40
2023-05-10T05:06:10.312Z,0.30
2023-05-10T05:14:12.875Z,0.43
2023-05-10T05:16:39.437Z,0.47
2023-05-10T05:19:06.103Z,0.40
2023-05-10T05:22:03.101Z,0.40
2023-05-10T05:24:29.552Z,0.60
2023-05-10T05:26:56.012Z,0.73
2023-05-10T05:29:22.467Z,0.70
2023-05-10T05:31:48.975Z,0.52
2023-05-10T05:34:15.415Z,0.57
2023-05-10T05:36:41.913Z,0.40
2023-05-10T05:40:05.910Z,0.32
2023-05-10T05:46:57.590Z,0.35
2023-05-10T05:49:24.073Z,0.40
2023-05-10T05:51:51.239Z,0.57
2023-05-10T05:55:19.170Z,0.50
2023-05-10T05:57:46.518Z,0.40
2023-05-10T06:00:13.622Z,0.32
2023-05-10T06:02:40.243Z,0.50
2023-05-10T06:05:07.389Z,0.40
2023-05-10T06:07:33.892Z,0.22
2023-05-10T06:13:22.475Z,0.30
2023-05-10T06:15:59.946Z,0.40
2023-05-10T06:18:26.603Z,0.30
2023-05-10T06:20:53.205Z,0.30
2023-05-10T06:30:12.220Z,0.50
2023-05-10T06:32:49.727Z,0.70
2023-05-10T06:35:16.465Z,0.50
2023-05-10T06:37:43.106Z,0.40
2023-05-10T06:40:10.294Z,0.40
2023-05-10T06:42:36.909Z,0.38
2023-05-10T06:45:03.555Z,0.30
2023-05-10T06:47:30.036Z,0.30
2023-05-10T06:49:57.364Z,0.28
2023-05-10T06:52:24.373Z,0.20
2023-05-10T06:57:45.649Z,0.20
2023-05-10T07:00:12.639Z,0.13
2023-05-10T07:02:39.136Z,0.20
2023-05-10T07:05:06.030Z,0.20
2023-05-10T07:07:32.577Z,0.20
2023-05-10T07:09:59.078Z,0.20
2023-05-10T07:12:25.782Z,0.20
2023-05-10T07:14:52.361Z,0.10
2023-05-10T07:17:19.003Z,0.30
2023-05-10T07:19:45.574Z,0.25
2023-05-10T07:22:12.489Z,0.20
2023-05-10T07:24:38.961Z,0.20
2023-05-10T07:27:05.478Z,0.20
2023-05-10T07:29:31.954Z,0.20
2023-05-10T07:31:59.075Z,0.30
2023-05-10T07:34:25.998Z,0.20
2023-05-10T07:36:52.929Z,0.40
2023-05-10T07:39:26.747Z,0.40
2023-05-10T07:41:56.912Z,0.30
2023-05-10T07:44:23.587Z,0.30
2023-05-10T07:46:50.068Z,0.70
2023-05-10T07:49:16.802Z,0.28
2023-05-10T07:51:43.633Z,0.35
2023-05-10T07:54:12.907Z,0.38
2023-05-10T07:56:40.612Z,0.30
2023-05-10T07:59:08.347Z,0.30
2023-05-10T08:01:35.934Z,0.47
2023-05-10T08:04:02.877Z,0.40
2023-05-10T08:06:30.721Z,0.40
2023-05-10T08:08:57.259Z,0.50
2023-05-10T08:11:23.752Z,0.70
2023-05-10T08:13:50.747Z,0.73
2023-05-10T08:16:17.823Z,0.50
2023-05-10T08:18:44.747Z,0.47
2023-05-10T08:21:12.271Z,0.65
2023-05-10T08:23:38.778Z,0.60
2023-05-10T08:26:05.220Z,0.60
2023-05-10T08:28:31.654Z,0.50
2023-05-10T08:30:58.108Z,0.70
2023-05-10T08:33:24.645Z,0.70
2023-05-10T08:35:51.210Z,0.65
2023-05-10T08:38:18.501Z,0.93
2023-05-10T08:40:45.351Z,0.75
2023-05-10T08:43:12.856Z,0.90
2023-05-10T08:45:43.752Z,0.63
2023-05-10T08:48:11.088Z,0.90
2023-05-10T08:50:41.012Z,0.70
2023-05-10T08:53:11.191Z,0.57
2023-05-10T08:55:39.375Z,0.60
2023-05-10T08:58:06.485Z,0.55
2023-05-10T09:00:33.125Z,0.60
2023-05-10T09:02:59.999Z,0.50
2023-05-10T09:05:26.548Z,0.60
2023-05-10T09:07:53.024Z,0.85
2023-05-10T09:10:20.063Z,1.00
2023-05-10T09:12:46.488Z,0.70
2023-05-10T09:15:13.260Z,0.70
2023-05-10T09:17:39.920Z,0.50
2023-05-10T09:20:07.270Z,0.85
2023-05-10T09:22:34.642Z,0.63
2023-05-10T09:25:13.774Z,0.57
2023-05-10T09:27:41.245Z,0.60
2023-05-10T09:30:08.435Z,0.70
2023-05-10T09:32:39.475Z,0.75
2023-05-10T09:35:12.230Z,0.70
2023-05-10T09:37:45.605Z,0.50
2023-05-10T09:40:13.531Z,0.60
2023-05-10T09:42:40.108Z,0.40
2023-05-10T09:45:07.007Z,0.45
2023-05-10T09:47:34.857Z,0.60
2023-05-10T09:50:04.483Z,0.50
2023-05-10T09:52:47.684Z,0.45
2023-05-10T09:55:14.335Z,0.38
2023-05-10T09:57:41.523Z,0.55
2023-05-10T10:00:08.638Z,0.50
2023-05-10T10:02:35.160Z,0.40
2023-05-10T10:05:02.068Z,0.50
2023-05-10T10:07:28.586Z,0.57
2023-05-10T10:09:55.014Z,0.47
2023-05-10T10:12:21.404Z,0.50
2023-05-10T10:14:48.965Z,0.40
2023-05-10T10:17:15.365Z,0.50
2023-05-10T10:19:41.794Z,0.60
2023-05-10T10:22:08.205Z,0.35
2023-05-10T10:24:34.736Z,0.57
2023-05-10T10:27:24.917Z,0.43
2023-05-10T10:30:12.947Z,0.50
2023-05-10T10:33:07.974Z,0.50
2023-05-10T10:35:43.926Z,0.57
2023-05-10T10:38:10.389Z,0.50
2023-05-10T10:40:36.833Z,0.60
2023-05-10T10:43:23.052Z,0.60
2023-05-10T10:46:10.227Z,0.40
2023-05-10T10:48:36.837Z,0.50
2023-05-10T10:51:03.354Z,0.50
2023-05-10T10:53:29.958Z,0.40
2023-05-10T10:56:07.814Z,0.65
2023-05-10T10:58:34.661Z,0.22
2023-05-10T11:01:17.781Z,0.30
2023-05-10T11:04:10.814Z,0.30
2023-05-10T11:06:37.343Z,0.32
2023-05-10T11:09:10.926Z,0.50
2023-05-10T11:11:37.436Z,0.38
2023-05-10T11:14:07.906Z,0.30
2023-05-10T11:16:44.209Z,0.50
2023-05-10T11:19:14.860Z,0.60
2023-05-10T11:22:06.369Z,0.50
2023-05-10T11:24:34.360Z,0.50
2023-05-10T11:27:00.788Z,0.40
2023-05-10T11:29:27.522Z,0.50
2023-05-10T11:31:53.981Z,0.40
2023-05-10T11:34:38.518Z,0.60
2023-05-10T11:37:04.941Z,0.85
2023-05-10T11:39:32.068Z,0.50
2023-05-10T11:41:58.685Z,0.57
2023-05-10T11:44:30.420Z,0.80
2023-05-10T11:46:59.794Z,0.60
2023-05-10T11:49:26.189Z,0.57
2023-05-10T11:51:52.592Z,0.57
2023-05-10T11:54:19.026Z,0.77
2023-05-10T11:56:46.376Z,0.60
2023-05-10T11:59:15.133Z,0.60
2023-05-10T12:01:42.407Z,0.50
2023-05-10T12:04:09.247Z,0.60
2023-05-10T12:06:39.615Z,0.50
2023-05-10T12:09:09.474Z,0.50
2023-05-10T12:11:39.662Z,0.65
2023-05-10T12:14:07.699Z,0.75
2023-05-10T12:16:34.544Z,0.80
2023-05-10T12:19:01.612Z,0.90
2023-05-10T12:21:29.213Z,0.90
2023-05-10T12:24:01.206Z,0.60
2023-05-10T12:26:28.595Z,0.60
2023-05-10T12:28:55.727Z,0.80
2023-05-10T12:31:22.186Z,0.90
2023-05-10T12:33:50.162Z,0.75
2023-05-10T12:36:16.893Z,0.75
2023-05-10T12:38:44.449Z,0.75
2023-05-10T12:41:11.951Z,0.90
2023-05-10T12:43:38.721Z,0.50
2023-05-10T12:46:09.139Z,0.63
2023-05-10T12:48:36.395Z,0.57
2023-05-10T12:51:03.438Z,0.52
2023-05-10T12:53:29.969Z,0.60
2023-05-10T12:55:56.604Z,0.70
2023-05-10T12:58:34.922Z,0.70
2023-05-10T13:01:02.296Z,0.57
2023-05-10T13:03:28.753Z,0.65
2023-05-10T13:05:55.359Z,0.60
2023-05-10T13:08:21.802Z,0.60
2023-05-10T13:10:48.256Z,0.65
2023-05-10T13:13:16.184Z,0.70
2023-05-10T13:15:42.608Z,0.60
2023-05-10T13:18:09.262Z,0.77
2023-05-10T13:20:36.814Z,0.60
2023-05-10T13:23:03.671Z,0.60
2023-05-10T13:25:30.278Z,0.70
2023-05-10T13:27:56.707Z,0.68
2023-05-10T13:30:24.761Z,0.70
2023-05-10T13:32:51.445Z,0.55
2023-05-10T13:35:17.950Z,0.60
2023-05-10T13:37:44.406Z,0.43
2023-05-10T13:40:11.037Z,0.60
2023-05-10T13:42:37.460Z,0.70
2023-05-10T13:45:04.141Z,0.60
2023-05-10T13:47:30.573Z,0.70
2023-05-10T13:49:58.281Z,0.60
2023-05-10T13:52:24.683Z,0.70
2023-05-10T13:54:52.957Z,0.65
2023-05-10T13:57:19.627Z,0.70
2023-05-10T13:59:46.090Z,0.73
2023-05-10T14:02:13.875Z,0.82
2023-05-10T14:04:40.336Z,0.70
2023-05-10T14:07:06.774Z,0.82
2023-05-10T14:09:33.235Z,0.70
2023-05-10T14:11:59.661Z,0.57
2023-05-10T14:14:26.157Z,0.82
2023-05-10T14:16:52.698Z,0.88
2023-05-10T14:19:19.380Z,0.70
2023-05-10T14:21:45.932Z,0.70
2023-05-10T14:24:12.843Z,0.80
2023-05-10T14:26:39.285Z,0.57
2023-05-10T14:29:05.697Z,0.60
2023-05-10T14:31:32.540Z,0.93
2023-05-10T14:34:00.019Z,0.60
2023-05-10T14:36:26.588Z,0.50
2023-05-10T14:38:53.138Z,0.60
2023-05-10T14:41:19.582Z,0.68
2023-05-10T14:43:46.095Z,0.40
2023-05-10T14:46:12.559Z,0.50
2023-05-10T14:48:39.141Z,0.65
2023-05-10T14:51:05.571Z,0.60
2023-05-10T14:53:32.078Z,0.70
2023-05-10T14:55:58.751Z,0.60
2023-05-10T14:58:25.193Z,0.55
2023-05-10T15:00:51.946Z,0.55
2023-05-10T15:03:18.853Z,0.70
2023-05-10T15:05:45.802Z,0.60
2023-05-10T15:08:13.460Z,0.50
2023-05-10T15:10:40.461Z,0.70
2023-05-10T15:13:06.935Z,0.75
2023-05-10T15:15:33.527Z,0.60
2023-05-10T15:18:00.089Z,0.60
2023-05-10T15:20:26.733Z,0.70
2023-05-10T15:22:53.213Z,0.60
2023-05-10T15:25:19.727Z,0.80
2023-05-10T15:27:46.323Z,0.65
2023-05-10T15:30:13.277Z,0.60
2023-05-10T15:32:40.939Z,0.60
2023-05-10T15:35:09.105Z,0.60
2023-05-10T15:37:35.531Z,0.70
2023-05-10T15:40:04.759Z,0.50
2023-05-10T15:42:32.849Z,0.50
2023-05-10T15:44:59.402Z,0.50
2023-05-10T15:47:26.619Z,0.47
2023-05-10T15:49:53.137Z,0.40
2023-05-10T15:52:20.906Z,0.40
2023-05-10T15:54:47.468Z,0.57
2023-05-10T15:57:14.075Z,0.75
2023-05-10T15:59:40.522Z,0.40
2023-05-10T16:02:07.686Z,0.65
2023-05-10T16:04:34.193Z,0.73
2023-05-10T16:07:00.819Z,0.50
2023-05-10T16:09:27.716Z,0.57
2023-05-10T16:11:54.376Z,0.70
2023-05-10T16:25:19.021Z,0.22
2023-05-10T16:27:45.704Z,0.20
2023-05-10T16:30:12.559Z,0.20
2023-05-10T16:32:39.114Z,0.20
2023-05-10T16:35:06.012Z,0.10
2023-05-10T16:37:32.538Z,0.20
2023-05-10T16:39:58.950Z,0.30
2023-05-10T16:42:25.989Z,0.20
2023-05-10T16:44:52.446Z,0.10
2023-05-10T16:47:18.861Z,0.20
2023-05-10T16:49:45.559Z,0.20
2023-05-10T16:52:11.977Z,0.20
2023-05-10T16:54:38.412Z,0.20
2023-05-10T16:57:04.851Z,0.20
2023-05-10T16:59:31.270Z,0.30
2023-05-10T17:01:57.784Z,0.30
2023-05-10T17:04:24.651Z,0.20
2023-05-10T17:06:51.618Z,0.22
2023-05-10T17:09:20.069Z,0.30
2023-05-10T17:11:46.600Z,0.20
2023-05-10T17:14:13.336Z,0.30
2023-05-10T17:16:39.873Z,0.20
2023-05-10T17:19:06.544Z,0.25
2023-05-10T17:21:33.027Z,0.45
2023-05-10T17:23:59.452Z,0.25
2023-05-10T17:26:27.407Z,0.30
2023-05-10T17:28:54.602Z,0.30
2023-05-10T17:31:21.073Z,0.30
2023-05-10T17:33:47.528Z,0.20
2023-05-10T17:36:13.939Z,0.10
2023-05-10T17:38:40.358Z,0.30
2023-05-10T17:41:07.349Z,0.30
2023-05-10T17:43:33.748Z,0.20
2023-05-10T17:46:00.346Z,0.22
2023-05-10T17:48:26.918Z,0.30
2023-05-10T17:50:53.372Z,0.25
2023-05-10T17:53:19.812Z,0.20
2023-05-10T17:55:46.896Z,0.25
2023-05-10T17:58:13.342Z,0.40
2023-05-10T18:00:39.939Z,0.30
2023-05-10T18:03:06.413Z,0.28
2023-05-10T18:05:37.151Z,0.20
2023-05-10T18:08:04.209Z,0.20
2023-05-10T18:10:30.743Z,0.10
2023-05-10T18:12:58.408Z,0.30
2023-05-10T18:15:25.103Z,0.20
2023-05-10T18:17:51.969Z,0.15
2023-05-10T18:20:18.713Z,0.30
2023-05-10T18:22:45.243Z,0.20
2023-05-10T18:25:11.669Z,0.30
2023-05-10T18:27:38.236Z,0.20
2023-05-10T18:30:06.180Z,0.63
2023-05-10T18:32:32.672Z,0.45
2023-05-10T18:34:59.076Z,0.30
2023-05-10T18:37:25.480Z,0.20
2023-05-10T18:39:51.910Z,0.30
2023-05-10T18:42:18.327Z,0.30
2023-05-10T18:44:44.790Z,0.30
2023-05-10T18:47:11.198Z,0.30
2023-05-10T18:49:37.630Z,0.30
2023-05-10T18:52:04.056Z,0.30
2023-05-10T18:54:30.466Z,0.32
2023-05-10T18:56:58.478Z,0.50
2023-05-10T18:59:30.877Z,0.38
2023-05-10T19:01:57.753Z,0.40
2023-05-10T19:04:24.425Z,0.30
2023-05-10T19:06:50.849Z,0.25
2023-05-10T19:09:19.983Z,0.30
2023-05-10T19:11:46.408Z,0.30
2023-05-10T19:14:12.877Z,0.35
2023-05-10T19:16:40.187Z,0.22
2023-05-10T19:19:08.634Z,0.30
2023-05-10T19:21:35.318Z,0.20
2023-05-10T19:24:01.935Z,0.30
2023-05-10T19:26:28.393Z,0.52
2023-05-10T19:28:54.824Z,0.32
2023-05-10T19:31:21.514Z,0.30
2023-05-10T19:33:48.043Z,0.20
2023-05-10T19:36:14.455Z,0.30
2023-05-10T19:38:40.986Z,0.30
2023-05-10T19:41:07.395Z,0.22
2023-05-10T19:43:34.942Z,0.20
2023-05-10T19:46:01.782Z,0.30
2023-05-10T19:48:28.287Z,0.52
2023-05-10T19:50:55.261Z,0.20
2023-05-10T19:53:21.717Z,0.30
2023-05-10T19:55:48.373Z,0.30
2023-05-10T19:58:14.815Z,0.30
2023-05-10T20:00:41.403Z,0.30
2023-05-10T20:03:09.293Z,0.20
2023-05-10T20:05:35.895Z,0.40
2023-05-10T20:08:02.436Z,0.40
2023-05-10T20:10:28.852Z,0.17
2023-05-10T20:12:55.274Z,0.32
2023-05-10T20:15:22.905Z,0.30
2023-05-10T20:17:51.028Z,0.30
2023-05-10T20:20:17.806Z,0.25
2023-05-10T20:22:44.736Z,0.30
2023-05-10T20:25:11.305Z,0.30
2023-05-10T20:27:37.744Z,0.43
2023-05-10T20:30:04.828Z,0.30
2023-05-10T20:32:31.526Z,0.20
2023-05-10T20:34:58.025Z,0.40
2023-05-10T20:37:24.454Z,0.28
2023-05-10T20:39:50.870Z,0.40
2023-05-10T20:42:17.322Z,0.32
2023-05-10T20:44:44.207Z,0.40
2023-05-10T20:47:10.634Z,0.30
2023-05-10T20:49:37.925Z,0.50
2023-05-10T20:52:04.981Z,0.50
2023-05-10T20:54:31.399Z,0.40
2023-05-10T20:56:57.887Z,0.30
2023-05-10T20:59:24.283Z,0.47
2023-05-10T21:01:50.918Z,0.30
2023-05-10T21:04:17.368Z,0.40
2023-05-10T21:06:44.141Z,0.43
2023-05-10T21:09:10.689Z,0.38
2023-05-10T21:11:38.322Z,0.35
2023-05-10T21:14:05.229Z,0.40
2023-05-10T21:16:31.855Z,0.40
2023-05-10T21:18:58.331Z,0.40
2023-05-10T21:21:24.810Z,0.60
2023-05-10T21:23:51.224Z,0.40
2023-05-10T21:26:17.644Z,0.22
2023-05-10T21:28:44.497Z,0.30
2023-05-10T21:31:11.222Z,0.50
2023-05-10T21:33:37.704Z,0.60
2023-05-10T21:36:04.397Z,0.40
2023-05-10T21:38:31.314Z,0.30
2023-05-10T21:40:57.770Z,0.43
2023-05-10T21:43:24.177Z,0.40
2023-05-10T21:45:50.633Z,0.50
2023-05-10T21:48:17.255Z,0.50
2023-05-10T21:50:43.794Z,0.28
2023-05-10T21:53:10.224Z,0.45
2023-05-10T21:55:36.863Z,0.30
2023-05-10T21:58:03.308Z,0.50
2023-05-10T22:00:30.571Z,0.43
2023-05-10T22:02:57.728Z,0.35
2023-05-10T22:05:24.220Z,0.50
2023-05-10T22:07:50.715Z,0.55
2023-05-10T22:10:17.382Z,0.40
2023-05-10T22:12:43.948Z,0.30
2023-05-10T22:15:11.169Z,0.50
2023-05-10T22:17:39.263Z,0.30
2023-05-10T22:20:09.259Z,0.30
2023-05-10T22:22:36.620Z,0.38
2023-05-10T22:25:03.759Z,0.50
2023-05-10T22:27:30.180Z,0.60
2023-05-10T22:29:56.728Z,0.52
2023-05-10T22:32:23.172Z,0.57
2023-05-10T22:34:49.643Z,0.40
2023-05-10T22:37:17.892Z,0.40
2023-05-10T22:39:48.490Z,0.70
2023-05-10T22:42:14.904Z,0.43
2023-05-10T22:44:41.597Z,0.60
2023-05-10T22:47:08.888Z,0.45
2023-05-10T22:49:35.316Z,0.35
2023-05-10T22:52:01.736Z,0.40
2023-05-10T22:54:28.169Z,0.47
2023-05-10T22:56:54.589Z,0.50
2023-05-10T22:59:21.096Z,0.50
2023-05-10T23:01:48.855Z,0.55
2023-05-10T23:04:16.906Z,0.43
2023-05-10T23:06:43.362Z,0.40
2023-05-10T23:09:09.809Z,0.45
2023-05-10T23:11:36.482Z,0.47
2023-05-10T23:14:03.061Z,0.32
2023-05-10T23:16:29.558Z,0.60
2023-05-10T23:18:56.096Z,0.43
2023-05-10T23:21:22.666Z,0.40
2023-05-10T23:23:49.237Z,0.40
2023-05-10T23:26:15.632Z,0.35
2023-05-10T23:28:42.065Z,0.43
2023-05-10T23:31:08.571Z,0.40
2023-05-10T23:33:35.081Z,0.50
2023-05-10T23:36:01.541Z,0.60
2023-05-10T23:38:27.959Z,0.40
2023-05-10T23:40:54.908Z,0.47
2023-05-10T23:43:21.791Z,0.30
2023-05-10T23:45:57.680Z,0.50
2023-05-10T23:48:24.226Z,0.40
2023-05-10T23:50:50.630Z,0.50
2023-05-10T23:53:17.038Z,0.50
2023-05-10T23:55:43.578Z,0.50
2023-05-10T23:58:10.027Z,0.50
